Terminal Aerodrome Forecast
Issued by NWS Albany, NY

Home | Current Version | Previous Version | Text Only | Print | Product List | Glossary On
Versions: 1 2 3 4 5 6 7 8 9 10 11 12 13 14 15 16 17 18 19 20 21 22 23 24 25 26 27 28 29 30
000
FTUS41 KALY 242300
TAFALB
TAF
KALB 242340Z 2500/2524 02005KT P6SM SCT008 BKN035
      TEMPO 2500/2502 BKN008
     FM250600 02005KT P6SM MIFG SCT080
     FM251300 19005KT P6SM SCT120=

USA.gov is the U.S. government's official web portal to all federal, state and local government web resources and services.